createdAt,value
2018-05-01T00:00:41.961Z,9.20
2018-05-01T00:03:10.046Z,8.90
2018-05-01T00:05:38.169Z,9.00
2018-05-01T00:08:06.289Z,8.82
2018-05-01T00:10:34.405Z,9.03
2018-05-01T00:13:02.517Z,9.13
2018-05-01T00:15:30.651Z,9.19
2018-05-01T00:17:58.731Z,8.98
2018-05-01T00:20:26.845Z,9.01
2018-05-01T00:22:54.946Z,9.06
2018-05-01T00:25:23.054Z,8.81
2018-05-01T00:27:51.161Z,8.92
2018-05-01T00:30:19.476Z,9.11
2018-05-01T00:32:47.572Z,8.74
2018-05-01T00:35:15.700Z,8.57
2018-05-01T00:37:43.791Z,8.66
2018-05-01T00:40:11.882Z,8.52
2018-05-01T00:42:40.006Z,8.81
2018-05-01T00:45:08.382Z,8.59
2018-05-01T00:47:36.744Z,8.71
2018-05-01T00:50:04.879Z,8.61
2018-05-01T00:52:44.869Z,8.90
2018-05-01T00:55:12.977Z,8.66
2018-05-01T00:57:41.077Z,8.80
2018-05-01T01:00:09.201Z,8.60
2018-05-01T01:02:37.300Z,8.71
2018-05-01T01:05:05.394Z,8.70
2018-05-01T01:07:33.508Z,8.59
2018-05-01T01:10:01.613Z,8.62
2018-05-01T01:12:29.721Z,8.59
2018-05-01T01:14:57.837Z,8.89
2018-05-01T01:17:25.939Z,8.88
2018-05-01T01:19:54.049Z,8.69
2018-05-01T01:22:22.182Z,8.84
2018-05-01T01:24:50.293Z,8.68
2018-05-01T01:27:18.412Z,8.82
2018-05-01T01:29:46.528Z,8.68
2018-05-01T01:32:14.640Z,8.43
2018-05-01T01:34:42.770Z,8.49
2018-05-01T01:37:10.367Z,8.62
2018-05-01T01:39:37.955Z,8.71
2018-05-01T01:42:05.502Z,8.51
2018-05-01T01:44:33.173Z,8.55
2018-05-01T01:47:00.662Z,8.44
2018-05-01T01:49:28.255Z,8.48
2018-05-01T01:51:56.322Z,8.35
2018-05-01T01:54:23.890Z,8.55
2018-05-01T01:56:51.471Z,8.49
2018-05-01T01:59:19.139Z,8.63
2018-05-01T02:01:46.869Z,8.49
2018-05-01T02:04:14.436Z,8.29
2018-05-01T02:06:42.033Z,8.38
2018-05-01T02:09:09.609Z,8.31
2018-05-01T02:11:37.187Z,8.29
2018-05-01T02:14:05.003Z,8.67
2018-05-01T02:16:32.584Z,8.40
2018-05-01T02:19:00.149Z,8.67
2018-05-01T02:21:27.733Z,8.57
2018-05-01T02:23:55.305Z,8.64
2018-05-01T02:26:22.874Z,8.35
2018-05-01T02:28:50.489Z,8.43
2018-05-01T02:31:18.049Z,8.61
2018-05-01T02:33:45.629Z,8.85
2018-05-01T02:36:13.205Z,8.44
2018-05-01T02:38:40.788Z,8.41
2018-05-01T02:41:08.384Z,8.26
2018-05-01T02:43:35.966Z,8.15
2018-05-01T02:46:03.539Z,8.21
2018-05-01T02:48:31.109Z,8.32
2018-05-01T02:50:58.693Z,8.51
2018-05-01T02:53:26.247Z,8.44
2018-05-01T02:55:53.802Z,8.10
2018-05-01T02:58:21.394Z,8.34
2018-05-01T03:00:48.967Z,8.12
2018-05-01T03:03:16.515Z,8.03
2018-05-01T03:05:44.081Z,8.06
2018-05-01T03:08:11.661Z,8.22
2018-05-01T03:10:39.237Z,8.15
2018-05-01T03:13:06.829Z,8.23
2018-05-01T03:15:34.393Z,8.51
2018-05-01T03:18:01.972Z,8.43
2018-05-01T03:20:29.534Z,8.58
2018-05-01T03:22:57.131Z,8.68
2018-05-01T03:25:24.751Z,8.61
2018-05-01T03:27:52.287Z,8.37
2018-05-01T03:30:19.862Z,8.28
2018-05-01T03:32:47.452Z,8.40
2018-05-01T03:35:15.018Z,8.29
2018-05-01T03:37:42.595Z,8.40
2018-05-01T03:40:10.147Z,8.34
2018-05-01T03:42:37.737Z,8.17
2018-05-01T03:45:05.295Z,8.11
2018-05-01T03:47:32.851Z,8.30
2018-05-01T03:50:00.440Z,8.60
2018-05-01T03:52:28.002Z,8.39
2018-05-01T03:54:55.582Z,8.50
2018-05-01T03:57:23.160Z,8.46
2018-05-01T03:59:50.753Z,8.53
2018-05-01T04:02:18.754Z,8.45
2018-05-01T04:04:46.291Z,8.36
2018-05-01T04:07:13.865Z,8.65
2018-05-01T04:09:41.426Z,8.35
2018-05-01T04:12:09.191Z,8.26
2018-05-01T04:14:36.743Z,8.69
2018-05-01T04:17:04.321Z,8.52
2018-05-01T04:19:31.906Z,8.34
2018-05-01T04:21:59.473Z,8.33
2018-05-01T04:24:27.027Z,8.46
2018-05-01T04:26:54.630Z,8.50
2018-05-01T04:29:22.214Z,8.45
2018-05-01T04:31:49.833Z,8.57
2018-05-01T04:34:17.442Z,8.07
2018-05-01T04:36:47.011Z,8.32
2018-05-01T04:39:14.605Z,8.22
2018-05-01T04:41:42.207Z,8.39
2018-05-01T04:44:09.790Z,8.49
2018-05-01T04:46:37.395Z,8.56
2018-05-01T04:49:04.983Z,8.59
2018-05-01T04:51:32.617Z,8.73
2018-05-01T04:54:00.207Z,8.74
2018-05-01T04:56:27.858Z,8.75
2018-05-01T04:58:55.464Z,8.68
2018-05-01T05:01:23.085Z,8.80
2018-05-01T05:03:50.650Z,8.90
2018-05-01T05:06:18.273Z,9.09
2018-05-01T05:08:46.028Z,9.04
2018-05-01T05:11:13.640Z,8.70
2018-05-01T05:13:41.232Z,8.57
2018-05-01T05:16:08.853Z,8.77
2018-05-01T05:18:36.465Z,8.67
2018-05-01T05:21:04.092Z,8.74
2018-05-01T05:23:31.669Z,8.66
2018-05-01T05:25:59.306Z,8.62
2018-05-01T05:28:26.884Z,8.62
2018-05-01T05:30:54.494Z,8.64
2018-05-01T05:33:22.064Z,8.53
2018-05-01T05:35:49.689Z,8.76
2018-05-01T05:38:17.261Z,8.62
2018-05-01T05:40:46.709Z,8.57
2018-05-01T05:43:14.285Z,8.75
2018-05-01T05:45:41.868Z,8.91
2018-05-01T05:48:09.504Z,8.90
2018-05-01T05:50:37.113Z,9.01
2018-05-01T05:53:04.694Z,8.79
2018-05-01T05:55:32.309Z,9.08
2018-05-01T05:57:59.887Z,8.84
2018-05-01T06:00:27.453Z,8.64
2018-05-01T06:02:55.077Z,8.79
2018-05-01T06:05:22.642Z,8.83
2018-05-01T06:07:50.370Z,8.74
2018-05-01T06:10:17.864Z,8.89
2018-05-01T06:12:45.467Z,8.80
2018-05-01T06:15:13.064Z,8.99
2018-05-01T06:17:40.641Z,8.87
2018-05-01T06:20:08.226Z,8.66
2018-05-01T06:22:36.667Z,8.66
2018-05-01T06:25:04.242Z,8.68
2018-05-01T06:27:31.840Z,8.80
2018-05-01T06:29:59.470Z,8.77
2018-05-01T06:32:27.040Z,8.75
2018-05-01T06:34:54.636Z,9.00
2018-05-01T06:37:22.219Z,8.99
2018-05-01T06:39:49.801Z,8.85
2018-05-01T06:42:17.363Z,9.04
2018-05-01T06:44:44.937Z,9.01
2018-05-01T06:47:12.535Z,9.06
2018-05-01T06:49:41.149Z,8.94
2018-05-01T06:52:08.768Z,8.94
2018-05-01T06:54:36.350Z,9.03
2018-05-01T06:57:03.956Z,9.03
2018-05-01T06:59:31.520Z,9.12
2018-05-01T07:01:59.107Z,9.12
2018-05-01T07:04:26.785Z,9.28
2018-05-01T07:06:54.296Z,9.17
2018-05-01T07:09:21.859Z,9.32
2018-05-01T07:11:49.476Z,9.33
2018-05-01T07:14:17.041Z,9.54
2018-05-01T07:16:44.614Z,9.60
2018-05-01T07:19:12.184Z,9.64
2018-05-01T07:21:39.760Z,9.46
2018-05-01T07:24:07.333Z,9.61
2018-05-01T07:26:34.932Z,9.46
2018-05-01T07:29:02.501Z,9.48
2018-05-01T07:31:30.078Z,9.42
2018-05-01T07:33:57.672Z,9.46
2018-05-01T07:36:26.262Z,9.46
2018-05-01T07:38:53.819Z,9.61
2018-05-01T07:41:21.582Z,9.83
2018-05-01T07:43:49.181Z,9.79
2018-05-01T07:46:16.750Z,9.78
2018-05-01T07:48:44.324Z,9.74
2018-05-01T07:51:11.919Z,9.65
2018-05-01T07:53:39.488Z,10.09
2018-05-01T07:56:07.082Z,9.90
2018-05-01T07:58:34.638Z,9.91
2018-05-01T08:01:02.208Z,10.11
2018-05-01T08:03:29.787Z,10.20
2018-05-01T08:05:57.363Z,10.07
2018-05-01T08:08:24.941Z,10.17
2018-05-01T08:10:52.555Z,10.09
2018-05-01T08:13:20.136Z,10.27
2018-05-01T08:15:47.703Z,10.30
2018-05-01T08:18:15.280Z,10.40
2018-05-01T08:20:42.852Z,10.49
2018-05-01T08:23:10.429Z,10.50
2018-05-01T08:25:38.433Z,10.54
2018-05-01T08:28:06.004Z,10.72
2018-05-01T08:30:33.618Z,10.80
2018-05-01T08:33:01.193Z,10.70
2018-05-01T08:35:28.796Z,10.59
2018-05-01T08:37:56.365Z,10.80
2018-05-01T08:40:24.012Z,10.64
2018-05-01T08:42:55.138Z,10.89
2018-05-01T08:45:22.721Z,11.10
2018-05-01T08:47:50.275Z,11.07
2018-05-01T08:50:17.854Z,11.08
2018-05-01T08:52:45.459Z,11.05
2018-05-01T08:55:13.030Z,11.08
2018-05-01T08:57:40.648Z,10.91
2018-05-01T09:00:08.508Z,11.07
2018-05-01T09:02:36.069Z,11.06
2018-05-01T09:05:03.692Z,11.37
2018-05-01T09:07:31.284Z,11.32
2018-05-01T09:10:02.390Z,11.22
2018-05-01T09:12:29.964Z,11.34
2018-05-01T09:14:57.568Z,11.61
2018-05-01T09:17:25.160Z,11.50
2018-05-01T09:19:52.718Z,11.42
2018-05-01T09:22:20.295Z,11.41
2018-05-01T09:24:50.758Z,11.44
2018-05-01T09:27:18.358Z,11.53
2018-05-01T09:29:45.951Z,11.60
2018-05-01T09:32:13.534Z,11.37
2018-05-01T09:34:41.090Z,11.48
2018-05-01T09:37:08.685Z,11.95
2018-05-01T09:39:36.282Z,11.76
2018-05-01T09:42:03.854Z,11.79
2018-05-01T09:44:31.472Z,11.86
2018-05-01T09:46:59.039Z,12.24
2018-05-01T09:49:26.600Z,12.21
2018-05-01T09:51:55.229Z,12.11
2018-05-01T09:54:23.367Z,12.04
2018-05-01T09:56:51.463Z,11.76
2018-05-01T09:59:20.027Z,11.77
2018-05-01T10:01:48.206Z,12.14
2018-05-01T10:04:16.231Z,12.33
2018-05-01T10:06:47.348Z,12.35
2018-05-01T10:09:15.527Z,12.08
2018-05-01T10:11:43.645Z,12.04
2018-05-01T10:14:11.777Z,11.96
2018-05-01T10:16:39.923Z,12.06
2018-05-01T10:19:08.061Z,12.22
2018-05-01T10:21:36.185Z,12.17
2018-05-01T10:24:04.316Z,12.12
2018-05-01T10:26:32.426Z,12.05
2018-05-01T10:29:00.572Z,12.17
2018-05-01T10:31:28.902Z,12.25
2018-05-01T10:33:57.088Z,12.06
2018-05-01T10:36:25.222Z,12.34
2018-05-01T10:38:53.391Z,12.36
2018-05-01T10:41:21.445Z,12.21
2018-05-01T10:43:49.751Z,12.30
2018-05-01T10:46:17.868Z,12.33
2018-05-01T10:48:45.976Z,12.33
2018-05-01T10:51:14.114Z,12.33
2018-05-01T10:53:42.233Z,12.37
2018-05-01T10:56:10.354Z,12.35
2018-05-01T10:58:38.497Z,12.44
2018-05-01T11:01:06.595Z,12.55
2018-05-01T11:03:35.089Z,12.71
2018-05-01T11:06:03.467Z,12.95
2018-05-01T11:08:31.640Z,13.08
2018-05-01T11:11:02.692Z,13.05
2018-05-01T11:13:30.828Z,13.02
2018-05-01T11:15:58.954Z,12.87
2018-05-01T11:18:27.065Z,13.07
2018-05-01T11:20:55.220Z,13.22
2018-05-01T11:23:23.333Z,13.13
2018-05-01T11:25:51.449Z,13.06
2018-05-01T11:28:19.597Z,13.08
2018-05-01T11:30:47.699Z,13.28
2018-05-01T11:33:15.840Z,13.42
2018-05-01T11:35:43.962Z,13.38
2018-05-01T11:38:12.077Z,13.51
2018-05-01T11:40:40.202Z,13.21
2018-05-01T11:43:08.323Z,13.57
2018-05-01T11:45:36.430Z,13.74
2018-05-01T11:48:04.553Z,13.56
2018-05-01T11:50:32.673Z,13.79
2018-05-01T11:53:00.803Z,13.94
2018-05-01T11:55:29.095Z,13.82
2018-05-01T11:57:57.231Z,13.80
2018-05-01T12:00:25.360Z,14.02
2018-05-01T12:02:53.491Z,14.28
2018-05-01T12:05:21.657Z,14.25
2018-05-01T12:07:49.769Z,14.18
2018-05-01T12:10:17.893Z,14.37
2018-05-01T12:12:46.050Z,14.55
2018-05-01T12:15:14.143Z,14.62
2018-05-01T12:17:42.282Z,14.82
2018-05-01T12:20:10.390Z,14.97
2018-05-01T12:22:38.514Z,14.81
2018-05-01T12:25:06.648Z,14.74
2018-05-01T12:27:35.514Z,14.84
2018-05-01T12:30:03.703Z,14.76
2018-05-01T12:32:31.756Z,15.04
2018-05-01T12:34:59.900Z,15.10
2018-05-01T12:37:27.996Z,14.97
2018-05-01T12:39:56.131Z,14.93
2018-05-01T12:42:24.331Z,14.87
2018-05-01T12:44:52.373Z,14.87
2018-05-01T12:47:20.495Z,14.69
2018-05-01T12:49:48.633Z,14.75
2018-05-01T12:52:19.747Z,15.44
2018-05-01T12:54:47.887Z,14.94
2018-05-01T12:57:16.047Z,14.75
2018-05-01T12:59:44.143Z,14.83
2018-05-01T13:02:12.268Z,14.83
2018-05-01T13:04:41.016Z,14.96
2018-05-01T13:07:09.152Z,15.17
2018-05-01T13:09:37.282Z,15.46
2018-05-01T13:12:05.614Z,15.33
2018-05-01T13:14:33.744Z,15.30
2018-05-01T13:17:01.863Z,15.38
2018-05-01T13:19:30.000Z,15.08
2018-05-01T13:21:58.107Z,15.12
2018-05-01T13:24:26.247Z,15.40
2018-05-01T13:26:54.373Z,14.99
2018-05-01T13:29:22.497Z,14.87
2018-05-01T13:31:50.613Z,15.22
2018-05-01T13:34:21.673Z,15.59
2018-05-01T13:36:49.781Z,15.45
2018-05-01T13:39:19.892Z,15.59
2018-05-01T13:41:48.007Z,15.64
2018-05-01T13:44:16.137Z,15.70
2018-05-01T13:46:44.246Z,15.93
2018-05-01T13:49:12.386Z,15.65
2018-05-01T13:51:40.516Z,15.56
2018-05-01T13:54:08.631Z,15.58
2018-05-01T13:56:36.768Z,15.82
2018-05-01T13:59:04.876Z,15.94
2018-05-01T14:01:32.981Z,16.00
2018-05-01T14:04:01.281Z,16.02
2018-05-01T14:06:29.414Z,16.07
2018-05-01T14:08:57.520Z,15.60
2018-05-01T14:11:25.656Z,15.58
2018-05-01T14:13:53.775Z,15.56
2018-05-01T14:16:21.902Z,15.74
2018-05-01T14:18:50.007Z,15.49
2018-05-01T14:21:18.124Z,15.19
2018-05-01T14:23:46.255Z,15.60
2018-05-01T14:26:14.380Z,15.48
2018-05-01T14:28:42.493Z,15.54
2018-05-01T14:31:10.608Z,15.57
2018-05-01T14:33:38.737Z,15.91
2018-05-01T14:36:06.884Z,16.05
2018-05-01T14:38:34.998Z,15.81
2018-05-01T14:41:03.137Z,15.79
2018-05-01T14:43:31.267Z,15.74
2018-05-01T14:45:59.363Z,15.57
2018-05-01T14:48:27.497Z,15.32
2018-05-01T14:50:55.611Z,15.01
2018-05-01T14:53:23.720Z,15.22
2018-05-01T14:55:51.848Z,15.24
2018-05-01T14:58:19.948Z,15.30
2018-05-01T15:00:48.062Z,15.54
2018-05-01T15:03:16.171Z,15.45
2018-05-01T15:05:44.290Z,15.60
2018-05-01T15:08:12.386Z,15.59
2018-05-01T15:10:40.517Z,15.68
2018-05-01T15:13:08.632Z,15.70
2018-05-01T15:15:36.757Z,15.25
2018-05-01T15:18:04.879Z,15.52
2018-05-01T15:20:33.016Z,15.37
2018-05-01T15:23:01.192Z,15.57
2018-05-01T15:25:29.476Z,15.56
2018-05-01T15:27:57.546Z,15.56
2018-05-01T15:30:25.813Z,15.61
2018-05-01T15:32:53.890Z,15.65
2018-05-01T15:35:22.058Z,15.54
2018-05-01T15:37:50.232Z,15.23
2018-05-01T15:40:18.358Z,15.30
2018-05-01T15:42:46.487Z,15.49
2018-05-01T15:45:14.700Z,15.46
2018-05-01T15:47:42.755Z,15.88
2018-05-01T15:50:10.869Z,15.89
2018-05-01T15:52:39.033Z,15.63
2018-05-01T15:55:07.156Z,15.74
2018-05-01T15:57:35.273Z,15.69
2018-05-01T16:00:03.542Z,15.87
2018-05-01T16:02:31.718Z,15.89
2018-05-01T16:04:59.922Z,15.72
2018-05-01T16:07:28.124Z,15.67
2018-05-01T16:09:56.245Z,15.26
2018-05-01T16:12:24.384Z,15.43
2018-05-01T16:14:52.467Z,15.48
2018-05-01T16:17:20.613Z,15.61
2018-05-01T16:19:48.733Z,15.65
2018-05-01T16:22:16.824Z,15.55
2018-05-01T16:24:44.953Z,15.13
2018-05-01T16:27:13.086Z,15.18
2018-05-01T16:29:41.228Z,15.31
2018-05-01T16:32:09.360Z,15.28
2018-05-01T16:34:37.465Z,15.10
2018-05-01T16:37:05.582Z,15.09
2018-05-01T16:39:33.714Z,15.18
2018-05-01T16:42:01.903Z,15.08
2018-05-01T16:44:30.033Z,15.22
2018-05-01T16:46:58.140Z,15.17
2018-05-01T16:49:26.272Z,15.27
2018-05-01T16:51:54.401Z,15.29
2018-05-01T16:54:22.518Z,15.40
2018-05-01T16:56:50.678Z,15.21
2018-05-01T16:59:18.921Z,15.24
2018-05-01T17:01:47.038Z,15.35
2018-05-01T17:04:15.143Z,15.39
2018-05-01T17:06:43.281Z,15.16
2018-05-01T17:09:11.413Z,15.14
2018-05-01T17:11:39.591Z,15.30
2018-05-01T17:14:07.903Z,15.33
2018-05-01T17:16:36.024Z,15.39
2018-05-01T17:19:04.155Z,15.43
2018-05-01T17:21:32.281Z,15.25
2018-05-01T17:24:00.406Z,15.31
2018-05-01T17:26:28.529Z,15.42
2018-05-01T17:28:56.657Z,15.24
2018-05-01T17:31:24.784Z,15.02
2018-05-01T17:33:52.936Z,15.20
2018-05-01T17:36:21.089Z,15.05
2018-05-01T17:38:49.198Z,14.88
2018-05-01T17:41:17.437Z,14.92
2018-05-01T17:43:45.590Z,14.99
2018-05-01T17:46:13.685Z,15.07
2018-05-01T17:48:41.806Z,14.96
2018-05-01T17:51:09.956Z,15.17
2018-05-01T17:53:38.083Z,15.07
2018-05-01T17:56:06.202Z,14.96
2018-05-01T17:58:34.347Z,15.16
2018-05-01T18:01:02.477Z,15.03
2018-05-01T18:03:30.595Z,14.83
2018-05-01T18:05:58.715Z,14.95
2018-05-01T18:08:26.847Z,14.87
2018-05-01T18:10:54.950Z,14.79
2018-05-01T18:13:23.078Z,14.64
2018-05-01T18:15:51.183Z,14.63
2018-05-01T18:18:19.305Z,14.61
2018-05-01T18:20:47.433Z,14.58
2018-05-01T18:23:15.601Z,14.68
2018-05-01T18:25:43.687Z,14.66
2018-05-01T18:28:11.836Z,14.76
2018-05-01T18:30:39.967Z,14.72
2018-05-01T18:33:08.075Z,14.65
2018-05-01T18:35:36.221Z,14.58
2018-05-01T18:38:04.333Z,14.53
2018-05-01T18:40:32.453Z,14.39
2018-05-01T18:43:00.585Z,14.41
2018-05-01T18:45:28.701Z,14.40
2018-05-01T18:47:56.825Z,14.46
2018-05-01T18:50:30.179Z,14.28
2018-05-01T18:52:53.396Z,14.31
2018-05-01T18:55:21.515Z,14.44
2018-05-01T18:57:49.664Z,14.39
2018-05-01T19:00:17.770Z,14.24
2018-05-01T19:02:49.620Z,14.26
2018-05-01T19:05:17.758Z,14.25
2018-05-01T19:07:45.894Z,14.32
2018-05-01T19:10:13.992Z,14.26
2018-05-01T19:12:42.114Z,14.32
2018-05-01T19:15:10.218Z,14.28
2018-05-01T19:17:38.342Z,14.27
2018-05-01T19:20:06.469Z,14.23
2018-05-01T19:22:34.596Z,14.16
2018-05-01T19:25:02.722Z,14.14
2018-05-01T19:27:31.072Z,14.09
2018-05-01T19:29:59.204Z,14.11
2018-05-01T19:32:27.336Z,14.06
2018-05-01T19:34:55.465Z,14.10
2018-05-01T19:37:23.585Z,13.96
2018-05-01T19:39:51.712Z,13.97
2018-05-01T19:42:19.855Z,13.93
2018-05-01T19:44:47.970Z,13.87
2018-05-01T19:47:16.104Z,13.83
2018-05-01T19:49:44.216Z,13.81
2018-05-01T19:52:13.582Z,13.80
2018-05-01T19:54:41.676Z,13.71
2018-05-01T19:57:09.817Z,13.67
2018-05-01T19:59:37.921Z,13.72
2018-05-01T20:02:06.059Z,13.72
2018-05-01T20:04:34.170Z,13.38
2018-05-01T20:07:02.301Z,13.44
2018-05-01T20:09:30.421Z,13.44
2018-05-01T20:11:58.534Z,13.41
2018-05-01T20:14:27.112Z,13.43
2018-05-01T20:16:55.237Z,13.37
2018-05-01T20:19:23.357Z,13.34
2018-05-01T20:21:51.492Z,13.31
2018-05-01T20:24:19.617Z,13.28
2018-05-01T20:26:47.731Z,13.25
2018-05-01T20:29:15.877Z,13.15
2018-05-01T20:31:44.012Z,13.11
2018-05-01T20:34:12.139Z,13.11
2018-05-01T20:36:40.275Z,12.95
2018-05-01T20:39:08.389Z,12.88
2018-05-01T20:41:36.659Z,12.82
2018-05-01T20:44:04.831Z,12.75
2018-05-01T20:46:40.193Z,12.72
2018-05-01T20:49:08.371Z,12.69
2018-05-01T20:51:36.481Z,12.67
2018-05-01T20:54:04.626Z,12.49
2018-05-01T20:56:32.737Z,12.65
2018-05-01T20:59:00.835Z,12.69
2018-05-01T21:01:28.980Z,12.64
2018-05-01T21:03:57.114Z,12.57
2018-05-01T21:06:25.223Z,12.39
2018-05-01T21:08:54.318Z,12.41
2018-05-01T21:11:22.444Z,12.40
2018-05-01T21:13:50.571Z,12.54
2018-05-01T21:16:18.693Z,12.53
2018-05-01T21:18:46.824Z,12.45
2018-05-01T21:21:15.262Z,12.32
2018-05-01T21:23:43.385Z,12.35
2018-05-01T21:26:11.512Z,12.35
2018-05-01T21:28:39.631Z,12.22
2018-05-01T21:31:07.753Z,12.25
2018-05-01T21:33:35.865Z,12.23
2018-05-01T21:36:03.978Z,12.16
2018-05-01T21:38:32.095Z,12.10
2018-05-01T21:41:00.212Z,12.11
2018-05-01T21:43:28.343Z,12.12
2018-05-01T21:45:56.478Z,12.16
2018-05-01T21:48:24.578Z,12.08
2018-05-01T21:50:52.719Z,11.93
2018-05-01T21:53:20.845Z,11.91
2018-05-01T21:55:48.942Z,11.95
2018-05-01T21:58:17.069Z,11.88
2018-05-01T22:00:45.215Z,11.88
2018-05-01T22:03:13.344Z,11.82
2018-05-01T22:05:41.476Z,11.80
2018-05-01T22:08:09.625Z,11.76
2018-05-01T22:10:37.722Z,11.43
2018-05-01T22:13:05.854Z,11.49
2018-05-01T22:15:34.147Z,11.48
2018-05-01T22:18:02.260Z,11.34
2018-05-01T22:20:30.379Z,11.27
2018-05-01T22:22:58.524Z,11.36
2018-05-01T22:25:26.618Z,11.42
2018-05-01T22:27:54.737Z,11.51
2018-05-01T22:30:23.118Z,11.50
2018-05-01T22:32:52.115Z,11.42
2018-05-01T22:35:20.255Z,11.30
2018-05-01T22:37:48.389Z,11.30
2018-05-01T22:40:16.532Z,11.18
2018-05-01T22:42:44.663Z,11.17
2018-05-01T22:45:12.816Z,11.00
2018-05-01T22:47:40.921Z,11.00
2018-05-01T22:50:09.016Z,11.17
2018-05-01T22:52:37.134Z,10.89
2018-05-01T22:55:05.245Z,10.95
2018-05-01T22:57:33.379Z,11.07
2018-05-01T23:00:01.512Z,11.19
2018-05-01T23:02:29.639Z,11.13
2018-05-01T23:04:57.759Z,11.02
2018-05-01T23:07:25.914Z,11.05
2018-05-01T23:09:54.042Z,10.95
2018-05-01T23:12:22.165Z,11.14
2018-05-01T23:14:50.423Z,11.22
2018-05-01T23:17:18.521Z,11.16
2018-05-01T23:19:46.640Z,11.22
2018-05-01T23:22:14.785Z,11.23
2018-05-01T23:24:42.921Z,11.28
2018-05-01T23:27:11.022Z,11.17
2018-05-01T23:29:39.149Z,11.05
2018-05-01T23:32:07.254Z,10.99
2018-05-01T23:34:35.383Z,10.97
2018-05-01T23:37:03.514Z,10.94
2018-05-01T23:39:31.627Z,10.95
2018-05-01T23:41:59.759Z,10.84
2018-05-01T23:44:27.880Z,10.76
2018-05-01T23:46:56.011Z,10.81
2018-05-01T23:49:24.132Z,10.83
2018-05-01T23:51:52.265Z,10.78
2018-05-01T23:54:20.390Z,10.90
2018-05-01T23:56:48.490Z,10.67
2018-05-01T23:59:16.746Z,10.81
